プラハ の空港の天気 - METARとTAF

ルズィニエ国際空港(プラハ) ( LKPR / PRG ) - チェコ プラハ
飛行場実況気象(Metar)
観測時間07/28 14:30 CEST (07/28 12:30 UTC)
風向・風速西 5m/s
視程10km以上
天気現象
全天の4割程度の雲 雲底高度 1460m
気温22℃
湿度53%
気圧1012hPa
METARLKPR 281230Z 28009KT 9999 SCT048 22/12 Q1012 NOSIG
過去の天気等 Google飛行場航空写真 Wunderground天気予報

過去48時間のMETAR

飛行場予報(TAF)
発表時間: 7/28 13:00 CEST (7/28 11:00 UTC)
予報対象時間: 28日14時 CEST ~ 29日20時 CEST
風向・風速西 4m/s
視程10km以上
全天の4割程度の雲 雲底高度 910m
28日14時 CEST ~ 28日20時 CEST に一時的に
風向・風速西北西 8m/s
視程8,000m
天気現象しゅう雨
全天の4割程度の塔状積雲 雲底高度 820m
全天の8割程度の雲 雲底高度 910m
28日23時 CEST ~ 29日8時 CEST に一時的に
風向・風速不定 1m/s
29日8時 CEST ~ 29日10時 CEST に徐々に
風向・風速南西 4m/s
TAF LKPR 281100Z 2812/2918 27008KT 9999 SCT030
TEMPO 2812/2818 30016KT 8000 SHRA SCT027TCU BKN030
TEMPO 2821/2906 VRB02KT
BECMG 2906/2908 22008KT